sensor_id;sensor_type;location;lat;lon;timestamp;P1;durP1;ratioP1;P2;durP2;ratioP2
25509;SDS011;13413;52.336;21.200;2022-09-01T00:03:06;3.80;;;1.60;;
25509;SDS011;13413;52.336;21.200;2022-09-01T00:06:25;2.40;;;1.50;;
25509;SDS011;13413;52.336;21.200;2022-09-01T00:09:45;2.50;;;1.80;;
25509;SDS011;13413;52.336;21.200;2022-09-01T00:13:05;1.80;;;1.50;;
25509;SDS011;13413;52.336;21.200;2022-09-01T00:16:26;2.60;;;1.50;;
25509;SDS011;13413;52.336;21.200;2022-09-01T00:19:47;1.60;;;1.30;;
25509;SDS011;13413;52.336;21.200;2022-09-01T00:23:08;7.30;;;1.40;;
25509;SDS011;13413;52.336;21.200;2022-09-01T00:26:28;2.40;;;1.40;;
25509;SDS011;13413;52.336;21.200;2022-09-01T00:29:49;1.50;;;1.40;;
25509;SDS011;13413;52.336;21.200;2022-09-01T00:33:08;2.60;;;1.60;;
25509;SDS011;13413;52.336;21.200;2022-09-01T00:36:28;3.20;;;1.60;;
25509;SDS011;13413;52.336;21.200;2022-09-01T00:39:48;3.80;;;1.60;;
25509;SDS011;13413;52.336;21.200;2022-09-01T00:43:15;5.50;;;1.50;;
25509;SDS011;13413;52.336;21.200;2022-09-01T00:46:38;3.50;;;1.90;;
25509;SDS011;13413;52.336;21.200;2022-09-01T00:50:00;2.30;;;1.40;;
25509;SDS011;13413;52.336;21.200;2022-09-01T00:53:21;2.50;;;1.40;;
25509;SDS011;13413;52.336;21.200;2022-09-01T00:56:42;3.30;;;1.70;;
25509;SDS011;13413;52.336;21.200;2022-09-01T01:00:06;2.40;;;1.50;;
25509;SDS011;13413;52.336;21.200;2022-09-01T01:03:28;2.90;;;1.30;;
25509;SDS011;13413;52.336;21.200;2022-09-01T01:06:49;2.50;;;1.60;;
25509;SDS011;13413;52.336;21.200;2022-09-01T01:10:10;4.00;;;1.40;;
25509;SDS011;13413;52.336;21.200;2022-09-01T01:13:30;3.10;;;1.50;;
25509;SDS011;13413;52.336;21.200;2022-09-01T01:17:04;5.00;;;2.00;;
25509;SDS011;13413;52.336;21.200;2022-09-01T01:20:25;2.90;;;1.70;;
25509;SDS011;13413;52.336;21.200;2022-09-01T01:23:50;2.70;;;1.40;;
25509;SDS011;13413;52.336;21.200;2022-09-01T01:27:17;2.00;;;1.70;;
25509;SDS011;13413;52.336;21.200;2022-09-01T01:30:41;3.90;;;1.40;;
25509;SDS011;13413;52.336;21.200;2022-09-01T01:34:04;4.40;;;1.60;;
25509;SDS011;13413;52.336;21.200;2022-09-01T01:37:24;2.50;;;1.80;;
25509;SDS011;13413;52.336;21.200;2022-09-01T01:40:43;5.70;;;1.40;;
25509;SDS011;13413;52.336;21.200;2022-09-01T01:44:03;2.40;;;1.40;;
25509;SDS011;13413;52.336;21.200;2022-09-01T01:47:24;2.20;;;1.50;;
25509;SDS011;13413;52.336;21.200;2022-09-01T01:50:43;1.70;;;1.40;;
25509;SDS011;13413;52.336;21.200;2022-09-01T01:54:04;2.20;;;1.30;;
25509;SDS011;13413;52.336;21.200;2022-09-01T01:57:23;2.90;;;2.00;;
25509;SDS011;13413;52.336;21.200;2022-09-01T02:00:43;2.80;;;1.50;;
25509;SDS011;13413;52.336;21.200;2022-09-01T02:04:03;3.60;;;1.60;;
25509;SDS011;13413;52.336;21.200;2022-09-01T02:07:22;3.90;;;1.50;;
25509;SDS011;13413;52.336;21.200;2022-09-01T02:10:43;3.70;;;1.90;;
25509;SDS011;13413;52.336;21.200;2022-09-01T02:14:07;3.70;;;1.50;;
25509;SDS011;13413;52.336;21.200;2022-09-01T02:17:26;5.80;;;1.70;;
25509;SDS011;13413;52.336;21.200;2022-09-01T02:24:18;2.60;;;1.50;;
25509;SDS011;13413;52.336;21.200;2022-09-01T02:27:39;3.50;;;1.30;;
25509;SDS011;13413;52.336;21.200;2022-09-01T02:30:58;3.10;;;1.40;;
25509;SDS011;13413;52.336;21.200;2022-09-01T02:34:18;3.40;;;1.40;;
25509;SDS011;13413;52.336;21.200;2022-09-01T02:37:39;3.60;;;1.50;;
25509;SDS011;13413;52.336;21.200;2022-09-01T02:40:59;6.60;;;1.50;;
25509;SDS011;13413;52.336;21.200;2022-09-01T02:44:19;2.10;;;1.40;;
25509;SDS011;13413;52.336;21.200;2022-09-01T02:47:38;2.70;;;1.40;;
25509;SDS011;13413;52.336;21.200;2022-09-01T02:50:58;1.80;;;1.40;;
25509;SDS011;13413;52.336;21.200;2022-09-01T02:54:19;1.80;;;1.50;;
25509;SDS011;13413;52.336;21.200;2022-09-01T02:57:39;2.50;;;1.60;;
25509;SDS011;13413;52.336;21.200;2022-09-01T03:00:58;4.90;;;1.80;;
25509;SDS011;13413;52.336;21.200;2022-09-01T03:04:19;4.10;;;1.70;;
25509;SDS011;13413;52.336;21.200;2022-09-01T03:07:39;4.50;;;1.90;;
25509;SDS011;13413;52.336;21.200;2022-09-01T03:11:00;5.80;;;1.50;;
25509;SDS011;13413;52.336;21.200;2022-09-01T03:14:19;5.10;;;1.40;;
25509;SDS011;13413;52.336;21.200;2022-09-01T03:17:40;2.40;;;1.60;;
25509;SDS011;13413;52.336;21.200;2022-09-01T03:20:59;3.70;;;1.50;;
25509;SDS011;13413;52.336;21.200;2022-09-01T03:24:20;3.40;;;1.70;;
25509;SDS011;13413;52.336;21.200;2022-09-01T03:27:39;4.50;;;1.80;;
25509;SDS011;13413;52.336;21.200;2022-09-01T03:30:59;5.30;;;2.10;;
25509;SDS011;13413;52.336;21.200;2022-09-01T03:34:18;4.70;;;2.00;;
25509;SDS011;13413;52.336;21.200;2022-09-01T03:37:38;2.70;;;1.70;;
25509;SDS011;13413;52.336;21.200;2022-09-01T03:40:59;2.80;;;2.00;;
25509;SDS011;13413;52.336;21.200;2022-09-01T03:44:22;4.20;;;2.30;;
25509;SDS011;13413;52.336;21.200;2022-09-01T03:47:40;4.30;;;2.10;;
25509;SDS011;13413;52.336;21.200;2022-09-01T03:51:01;3.60;;;1.90;;
25509;SDS011;13413;52.336;21.200;2022-09-01T03:54:21;6.40;;;2.20;;
25509;SDS011;13413;52.336;21.200;2022-09-01T03:57:40;4.50;;;1.80;;
25509;SDS011;13413;52.336;21.200;2022-09-01T04:01:00;5.50;;;2.00;;
25509;SDS011;13413;52.336;21.200;2022-09-01T04:04:21;4.20;;;1.90;;
25509;SDS011;13413;52.336;21.200;2022-09-01T04:07:41;4.70;;;2.30;;
25509;SDS011;13413;52.336;21.200;2022-09-01T04:11:02;6.90;;;2.10;;
25509;SDS011;13413;52.336;21.200;2022-09-01T04:14:30;6.70;;;2.10;;
25509;SDS011;13413;52.336;21.200;2022-09-01T04:17:51;5.10;;;2.20;;
25509;SDS011;13413;52.336;21.200;2022-09-01T04:21:11;6.50;;;2.00;;
25509;SDS011;13413;52.336;21.200;2022-09-01T04:24:30;9.90;;;2.40;;
25509;SDS011;13413;52.336;21.200;2022-09-01T04:27:50;7.70;;;2.60;;
25509;SDS011;13413;52.336;21.200;2022-09-01T04:31:11;5.80;;;2.20;;
25509;SDS011;13413;52.336;21.200;2022-09-01T04:34:35;5.00;;;2.10;;
25509;SDS011;13413;52.336;21.200;2022-09-01T04:37:56;7.60;;;5.20;;
25509;SDS011;13413;52.336;21.200;2022-09-01T04:41:16;4.80;;;2.80;;
25509;SDS011;13413;52.336;21.200;2022-09-01T04:44:35;3.20;;;2.20;;
25509;SDS011;13413;52.336;21.200;2022-09-01T04:47:55;6.40;;;2.10;;
25509;SDS011;13413;52.336;21.200;2022-09-01T04:51:15;3.90;;;2.40;;
25509;SDS011;13413;52.336;21.200;2022-09-01T04:54:36;4.70;;;2.90;;
25509;SDS011;13413;52.336;21.200;2022-09-01T04:57:57;5.90;;;2.50;;
25509;SDS011;13413;52.336;21.200;2022-09-01T05:01:18;6.50;;;2.40;;
25509;SDS011;13413;52.336;21.200;2022-09-01T05:04:40;8.30;;;2.30;;
25509;SDS011;13413;52.336;21.200;2022-09-01T05:07:59;6.10;;;2.60;;
25509;SDS011;13413;52.336;21.200;2022-09-01T05:11:20;9.50;;;3.50;;
25509;SDS011;13413;52.336;21.200;2022-09-01T05:14:42;6.30;;;2.90;;
25509;SDS011;13413;52.336;21.200;2022-09-01T05:18:03;6.30;;;2.20;;
25509;SDS011;13413;52.336;21.200;2022-09-01T05:21:23;7.00;;;2.60;;
25509;SDS011;13413;52.336;21.200;2022-09-01T05:24:42;5.10;;;2.40;;
25509;SDS011;13413;52.336;21.200;2022-09-01T05:28:01;5.30;;;2.10;;
25509;SDS011;13413;52.336;21.200;2022-09-01T05:31:20;11.30;;;2.90;;
25509;SDS011;13413;52.336;21.200;2022-09-01T05:34:40;4.90;;;2.10;;
25509;SDS011;13413;52.336;21.200;2022-09-01T05:37:59;8.70;;;2.60;;
25509;SDS011;13413;52.336;21.200;2022-09-01T05:44:39;7.60;;;3.10;;
25509;SDS011;13413;52.336;21.200;2022-09-01T05:47:58;6.60;;;3.10;;
25509;SDS011;13413;52.336;21.200;2022-09-01T05:51:18;4.70;;;2.30;;
25509;SDS011;13413;52.336;21.200;2022-09-01T05:54:40;5.90;;;1.80;;
25509;SDS011;13413;52.336;21.200;2022-09-01T05:57:59;12.40;;;2.80;;
25509;SDS011;13413;52.336;21.200;2022-09-01T06:01:20;5.40;;;1.80;;
25509;SDS011;13413;52.336;21.200;2022-09-01T06:04:41;8.70;;;2.40;;
25509;SDS011;13413;52.336;21.200;2022-09-01T06:08:00;6.70;;;1.70;;
25509;SDS011;13413;52.336;21.200;2022-09-01T06:11:19;4.30;;;1.60;;
25509;SDS011;13413;52.336;21.200;2022-09-01T06:14:38;5.10;;;1.80;;
25509;SDS011;13413;52.336;21.200;2022-09-01T06:17:58;15.80;;;1.90;;
25509;SDS011;13413;52.336;21.200;2022-09-01T06:21:19;6.30;;;1.80;;
25509;SDS011;13413;52.336;21.200;2022-09-01T06:24:40;7.70;;;1.60;;
25509;SDS011;13413;52.336;21.200;2022-09-01T06:28:00;14.70;;;2.50;;
25509;SDS011;13413;52.336;21.200;2022-09-01T06:31:20;5.70;;;1.20;;
25509;SDS011;13413;52.336;21.200;2022-09-01T06:34:40;2.40;;;1.20;;
25509;SDS011;13413;52.336;21.200;2022-09-01T06:38:01;1.80;;;1.00;;
25509;SDS011;13413;52.336;21.200;2022-09-01T06:41:21;6.10;;;1.80;;
25509;SDS011;13413;52.336;21.200;2022-09-01T06:44:42;2.90;;;1.40;;
25509;SDS011;13413;52.336;21.200;2022-09-01T06:48:03;5.00;;;1.60;;
25509;SDS011;13413;52.336;21.200;2022-09-01T06:51:23;3.60;;;1.60;;
25509;SDS011;13413;52.336;21.200;2022-09-01T06:54:43;8.00;;;1.80;;
25509;SDS011;13413;52.336;21.200;2022-09-01T06:58:03;4.70;;;1.40;;
25509;SDS011;13413;52.336;21.200;2022-09-01T07:01:23;4.50;;;1.50;;
25509;SDS011;13413;52.336;21.200;2022-09-01T07:04:43;9.90;;;1.80;;
25509;SDS011;13413;52.336;21.200;2022-09-01T07:08:03;2.70;;;0.90;;
25509;SDS011;13413;52.336;21.200;2022-09-01T07:11:25;4.80;;;1.40;;
25509;SDS011;13413;52.336;21.200;2022-09-01T07:14:47;2.30;;;1.50;;
25509;SDS011;13413;52.336;21.200;2022-09-01T07:18:07;4.70;;;1.30;;
25509;SDS011;13413;52.336;21.200;2022-09-01T07:21:29;4.70;;;1.30;;
25509;SDS011;13413;52.336;21.200;2022-09-01T07:24:48;3.80;;;1.00;;
25509;SDS011;13413;52.336;21.200;2022-09-01T07:28:09;3.00;;;1.30;;
25509;SDS011;13413;52.336;21.200;2022-09-01T07:31:31;3.40;;;1.30;;
25509;SDS011;13413;52.336;21.200;2022-09-01T07:34:52;6.10;;;1.50;;
25509;SDS011;13413;52.336;21.200;2022-09-01T07:38:12;8.10;;;0.80;;
25509;SDS011;13413;52.336;21.200;2022-09-01T07:41:33;2.70;;;0.70;;
25509;SDS011;13413;52.336;21.200;2022-09-01T07:44:53;10.20;;;2.10;;
25509;SDS011;13413;52.336;21.200;2022-09-01T07:48:12;3.90;;;0.80;;
25509;SDS011;13413;52.336;21.200;2022-09-01T07:51:32;4.80;;;1.10;;
25509;SDS011;13413;52.336;21.200;2022-09-01T07:54:52;6.20;;;1.10;;
25509;SDS011;13413;52.336;21.200;2022-09-01T07:58:12;1.40;;;0.90;;
25509;SDS011;13413;52.336;21.200;2022-09-01T08:01:32;5.40;;;1.20;;
25509;SDS011;13413;52.336;21.200;2022-09-01T08:04:52;1.60;;;0.90;;
25509;SDS011;13413;52.336;21.200;2022-09-01T08:08:11;3.20;;;1.10;;
25509;SDS011;13413;52.336;21.200;2022-09-01T08:11:31;1.90;;;0.70;;
25509;SDS011;13413;52.336;21.200;2022-09-01T08:14:50;7.30;;;1.10;;
25509;SDS011;13413;52.336;21.200;2022-09-01T08:18:10;4.00;;;1.40;;
25509;SDS011;13413;52.336;21.200;2022-09-01T08:21:31;2.20;;;0.60;;
25509;SDS011;13413;52.336;21.200;2022-09-01T08:24:51;3.20;;;0.80;;
25509;SDS011;13413;52.336;21.200;2022-09-01T08:28:11;2.10;;;0.50;;
25509;SDS011;13413;52.336;21.200;2022-09-01T08:31:32;1.00;;;0.50;;
25509;SDS011;13413;52.336;21.200;2022-09-01T08:34:53;3.50;;;1.10;;
25509;SDS011;13413;52.336;21.200;2022-09-01T08:38:12;3.80;;;1.30;;
25509;SDS011;13413;52.336;21.200;2022-09-01T08:41:50;3.50;;;0.80;;
25509;SDS011;13413;52.336;21.200;2022-09-01T08:45:20;3.90;;;0.90;;
25509;SDS011;13413;52.336;21.200;2022-09-01T08:48:45;4.40;;;1.00;;
25509;SDS011;13413;52.336;21.200;2022-09-01T08:52:10;2.80;;;1.00;;
25509;SDS011;13413;52.336;21.200;2022-09-01T08:55:38;8.00;;;1.50;;
25509;SDS011;13413;52.336;21.200;2022-09-01T08:59:01;1.00;;;0.70;;
25509;SDS011;13413;52.336;21.200;2022-09-01T09:02:29;2.50;;;0.90;;
25509;SDS011;13413;52.336;21.200;2022-09-01T09:06:04;1.80;;;1.10;;
25509;SDS011;13413;52.336;21.200;2022-09-01T09:09:34;3.10;;;0.90;;
25509;SDS011;13413;52.336;21.200;2022-09-01T09:13:02;2.90;;;0.50;;
25509;SDS011;13413;52.336;21.200;2022-09-01T09:16:29;5.30;;;0.80;;
25509;SDS011;13413;52.336;21.200;2022-09-01T09:23:19;1.70;;;0.70;;
25509;SDS011;13413;52.336;21.200;2022-09-01T09:26:48;7.60;;;2.30;;
25509;SDS011;13413;52.336;21.200;2022-09-01T09:30:10;1.90;;;0.70;;
25509;SDS011;13413;52.336;21.200;2022-09-01T09:33:37;1.40;;;0.70;;
25509;SDS011;13413;52.336;21.200;2022-09-01T09:36:57;5.40;;;1.00;;
25509;SDS011;13413;52.336;21.200;2022-09-01T09:40:33;2.20;;;0.40;;
25509;SDS011;13413;52.336;21.200;2022-09-01T09:43:53;2.60;;;1.00;;
25509;SDS011;13413;52.336;21.200;2022-09-01T09:50:58;0.70;;;0.50;;
25509;SDS011;13413;52.336;21.200;2022-09-01T09:54:35;0.60;;;0.40;;
25509;SDS011;13413;52.336;21.200;2022-09-01T09:57:57;3.80;;;0.80;;
25509;SDS011;13413;52.336;21.200;2022-09-01T10:01:28;0.90;;;0.60;;
25509;SDS011;13413;52.336;21.200;2022-09-01T10:04:48;1.40;;;0.70;;
25509;SDS011;13413;52.336;21.200;2022-09-01T10:08:10;3.50;;;1.50;;
25509;SDS011;13413;52.336;21.200;2022-09-01T10:11:51;3.60;;;0.60;;
25509;SDS011;13413;52.336;21.200;2022-09-01T10:15:12;1.10;;;0.90;;
25509;SDS011;13413;52.336;21.200;2022-09-01T10:18:37;1.70;;;0.90;;
25509;SDS011;13413;52.336;21.200;2022-09-01T10:22:00;0.40;;;0.40;;
25509;SDS011;13413;52.336;21.200;2022-09-01T10:25:22;2.40;;;0.70;;
25509;SDS011;13413;52.336;21.200;2022-09-01T10:28:49;1.60;;;0.70;;
25509;SDS011;13413;52.336;21.200;2022-09-01T10:32:15;2.30;;;0.90;;
25509;SDS011;13413;52.336;21.200;2022-09-01T10:35:40;1.30;;;0.60;;
25509;SDS011;13413;52.336;21.200;2022-09-01T10:39:02;1.30;;;0.90;;
25509;SDS011;13413;52.336;21.200;2022-09-01T10:42:27;4.10;;;0.90;;
25509;SDS011;13413;52.336;21.200;2022-09-01T10:45:48;0.80;;;0.70;;
25509;SDS011;13413;52.336;21.200;2022-09-01T10:49:17;5.10;;;1.00;;
25509;SDS011;13413;52.336;21.200;2022-09-01T10:56:34;3.00;;;0.60;;
25509;SDS011;13413;52.336;21.200;2022-09-01T11:00:09;3.00;;;0.70;;
25509;SDS011;13413;52.336;21.200;2022-09-01T11:03:50;2.50;;;1.00;;
25509;SDS011;13413;52.336;21.200;2022-09-01T11:10:52;1.40;;;0.70;;
25509;SDS011;13413;52.336;21.200;2022-09-01T11:14:18;1.30;;;0.50;;
25509;SDS011;13413;52.336;21.200;2022-09-01T11:17:52;5.70;;;1.00;;
25509;SDS011;13413;52.336;21.200;2022-09-01T11:21:15;5.20;;;0.80;;
25509;SDS011;13413;52.336;21.200;2022-09-01T11:24:48;1.40;;;0.70;;
25509;SDS011;13413;52.336;21.200;2022-09-01T11:32:03;7.10;;;0.80;;
25509;SDS011;13413;52.336;21.200;2022-09-01T11:35:25;1.90;;;1.60;;
25509;SDS011;13413;52.336;21.200;2022-09-01T11:38:48;1.20;;;0.70;;
25509;SDS011;13413;52.336;21.200;2022-09-01T11:42:14;1.20;;;1.00;;
25509;SDS011;13413;52.336;21.200;2022-09-01T11:45:41;0.60;;;0.60;;
25509;SDS011;13413;52.336;21.200;2022-09-01T11:52:55;0.60;;;0.40;;
25509;SDS011;13413;52.336;21.200;2022-09-01T11:56:17;4.90;;;0.90;;
25509;SDS011;13413;52.336;21.200;2022-09-01T11:59:41;0.90;;;0.70;;
25509;SDS011;13413;52.336;21.200;2022-09-01T12:03:03;1.90;;;0.70;;
25509;SDS011;13413;52.336;21.200;2022-09-01T12:06:36;1.40;;;0.60;;
25509;SDS011;13413;52.336;21.200;2022-09-01T12:09:56;3.40;;;0.60;;
25509;SDS011;13413;52.336;21.200;2022-09-01T12:13:18;0.90;;;0.50;;
25509;SDS011;13413;52.336;21.200;2022-09-01T12:16:39;1.60;;;0.60;;
25509;SDS011;13413;52.336;21.200;2022-09-01T12:23:39;5.00;;;1.00;;
25509;SDS011;13413;52.336;21.200;2022-09-01T12:27:00;5.20;;;0.60;;
25509;SDS011;13413;52.336;21.200;2022-09-01T12:30:20;0.70;;;0.60;;
25509;SDS011;13413;52.336;21.200;2022-09-01T12:33:40;3.60;;;0.70;;
25509;SDS011;13413;52.336;21.200;2022-09-01T12:37:05;1.70;;;0.70;;
25509;SDS011;13413;52.336;21.200;2022-09-01T12:40:31;2.10;;;1.20;;
25509;SDS011;13413;52.336;21.200;2022-09-01T12:43:52;0.90;;;0.70;;
25509;SDS011;13413;52.336;21.200;2022-09-01T12:47:17;1.20;;;0.40;;
25509;SDS011;13413;52.336;21.200;2022-09-01T12:51:14;0.90;;;0.60;;
25509;SDS011;13413;52.336;21.200;2022-09-01T12:54:37;0.70;;;0.60;;
25509;SDS011;13413;52.336;21.200;2022-09-01T12:57:58;4.60;;;0.60;;
25509;SDS011;13413;52.336;21.200;2022-09-01T13:01:27;0.90;;;0.60;;
25509;SDS011;13413;52.336;21.200;2022-09-01T13:04:48;1.80;;;0.70;;
25509;SDS011;13413;52.336;21.200;2022-09-01T13:08:08;3.40;;;0.90;;
25509;SDS011;13413;52.336;21.200;2022-09-01T13:11:31;2.00;;;0.60;;
25509;SDS011;13413;52.336;21.200;2022-09-01T13:14:52;4.00;;;0.90;;
25509;SDS011;13413;52.336;21.200;2022-09-01T13:18:11;2.30;;;1.40;;
25509;SDS011;13413;52.336;21.200;2022-09-01T13:21:33;2.70;;;0.80;;
25509;SDS011;13413;52.336;21.200;2022-09-01T13:24:53;3.10;;;1.30;;
25509;SDS011;13413;52.336;21.200;2022-09-01T13:28:14;2.50;;;0.80;;
25509;SDS011;13413;52.336;21.200;2022-09-01T13:31:34;6.00;;;0.90;;
25509;SDS011;13413;52.336;21.200;2022-09-01T13:34:55;2.80;;;0.80;;
25509;SDS011;13413;52.336;21.200;2022-09-01T13:38:15;1.80;;;0.50;;
25509;SDS011;13413;52.336;21.200;2022-09-01T13:41:36;1.00;;;0.70;;
25509;SDS011;13413;52.336;21.200;2022-09-01T13:44:55;4.30;;;0.60;;
25509;SDS011;13413;52.336;21.200;2022-09-01T13:48:28;0.50;;;0.40;;
25509;SDS011;13413;52.336;21.200;2022-09-01T13:51:50;1.20;;;0.80;;
25509;SDS011;13413;52.336;21.200;2022-09-01T13:55:11;4.70;;;0.70;;
25509;SDS011;13413;52.336;21.200;2022-09-01T13:58:33;2.60;;;0.60;;
25509;SDS011;13413;52.336;21.200;2022-09-01T14:01:53;3.20;;;0.90;;
25509;SDS011;13413;52.336;21.200;2022-09-01T14:05:13;6.40;;;1.80;;
25509;SDS011;13413;52.336;21.200;2022-09-01T14:08:33;5.90;;;1.20;;
25509;SDS011;13413;52.336;21.200;2022-09-01T14:11:53;1.80;;;1.20;;
25509;SDS011;13413;52.336;21.200;2022-09-01T14:15:14;2.20;;;1.00;;
25509;SDS011;13413;52.336;21.200;2022-09-01T14:18:36;4.40;;;0.80;;
25509;SDS011;13413;52.336;21.200;2022-09-01T14:21:57;2.70;;;0.90;;
25509;SDS011;13413;52.336;21.200;2022-09-01T14:25:16;2.30;;;0.90;;
25509;SDS011;13413;52.336;21.200;2022-09-01T14:28:36;1.60;;;0.70;;
25509;SDS011;13413;52.336;21.200;2022-09-01T14:31:57;0.70;;;0.60;;
25509;SDS011;13413;52.336;21.200;2022-09-01T14:35:17;1.30;;;0.70;;
25509;SDS011;13413;52.336;21.200;2022-09-01T14:38:38;3.70;;;1.10;;
25509;SDS011;13413;52.336;21.200;2022-09-01T14:41:57;2.50;;;0.90;;
25509;SDS011;13413;52.336;21.200;2022-09-01T14:45:18;2.30;;;0.70;;
25509;SDS011;13413;52.336;21.200;2022-09-01T14:48:40;3.70;;;0.90;;
25509;SDS011;13413;52.336;21.200;2022-09-01T14:52:00;2.70;;;0.70;;
25509;SDS011;13413;52.336;21.200;2022-09-01T14:55:22;0.90;;;0.70;;
25509;SDS011;13413;52.336;21.200;2022-09-01T14:58:45;2.20;;;0.80;;
25509;SDS011;13413;52.336;21.200;2022-09-01T15:02:06;1.10;;;0.60;;
25509;SDS011;13413;52.336;21.200;2022-09-01T15:05:25;5.20;;;1.40;;
25509;SDS011;13413;52.336;21.200;2022-09-01T15:08:45;3.80;;;0.80;;
25509;SDS011;13413;52.336;21.200;2022-09-01T15:12:05;3.00;;;0.90;;
25509;SDS011;13413;52.336;21.200;2022-09-01T15:15:27;1.20;;;0.70;;
25509;SDS011;13413;52.336;21.200;2022-09-01T15:18:46;1.20;;;1.10;;
25509;SDS011;13413;52.336;21.200;2022-09-01T15:22:08;3.00;;;0.60;;
25509;SDS011;13413;52.336;21.200;2022-09-01T15:25:28;1.60;;;0.80;;
25509;SDS011;13413;52.336;21.200;2022-09-01T15:28:48;2.60;;;0.60;;
25509;SDS011;13413;52.336;21.200;2022-09-01T15:32:09;2.00;;;0.50;;
25509;SDS011;13413;52.336;21.200;2022-09-01T15:35:29;2.30;;;0.70;;
25509;SDS011;13413;52.336;21.200;2022-09-01T15:38:50;1.50;;;0.50;;
25509;SDS011;13413;52.336;21.200;2022-09-01T15:42:10;4.70;;;0.70;;
25509;SDS011;13413;52.336;21.200;2022-09-01T15:45:30;3.50;;;1.70;;
25509;SDS011;13413;52.336;21.200;2022-09-01T15:48:50;3.30;;;1.00;;
25509;SDS011;13413;52.336;21.200;2022-09-01T15:52:11;0.80;;;0.60;;
25509;SDS011;13413;52.336;21.200;2022-09-01T15:55:31;4.30;;;0.70;;
25509;SDS011;13413;52.336;21.200;2022-09-01T15:59:01;2.70;;;0.80;;
25509;SDS011;13413;52.336;21.200;2022-09-01T16:05:56;1.60;;;0.50;;
25509;SDS011;13413;52.336;21.200;2022-09-01T16:09:18;2.70;;;0.70;;
25509;SDS011;13413;52.336;21.200;2022-09-01T16:12:38;4.30;;;1.10;;
25509;SDS011;13413;52.336;21.200;2022-09-01T16:16:03;2.10;;;0.60;;
25509;SDS011;13413;52.336;21.200;2022-09-01T16:19:45;0.80;;;0.60;;
25509;SDS011;13413;52.336;21.200;2022-09-01T16:23:13;3.20;;;0.90;;
25509;SDS011;13413;52.336;21.200;2022-09-01T16:26:35;1.70;;;1.00;;
25509;SDS011;13413;52.336;21.200;2022-09-01T16:29:55;5.10;;;1.20;;
25509;SDS011;13413;52.336;21.200;2022-09-01T16:33:17;2.00;;;0.80;;
25509;SDS011;13413;52.336;21.200;2022-09-01T16:36:38;1.60;;;1.10;;
25509;SDS011;13413;52.336;21.200;2022-09-01T16:40:07;1.70;;;0.60;;
25509;SDS011;13413;52.336;21.200;2022-09-01T16:43:34;3.10;;;1.10;;
25509;SDS011;13413;52.336;21.200;2022-09-01T16:50:24;1.90;;;0.60;;
25509;SDS011;13413;52.336;21.200;2022-09-01T16:57:33;7.10;;;1.00;;
25509;SDS011;13413;52.336;21.200;2022-09-01T17:01:00;1.30;;;0.80;;
25509;SDS011;13413;52.336;21.200;2022-09-01T17:04:33;2.90;;;1.40;;
25509;SDS011;13413;52.336;21.200;2022-09-01T17:08:04;5.20;;;1.00;;
25509;SDS011;13413;52.336;21.200;2022-09-01T17:11:31;5.30;;;1.30;;
25509;SDS011;13413;52.336;21.200;2022-09-01T17:14:56;10.60;;;1.50;;
25509;SDS011;13413;52.336;21.200;2022-09-01T17:18:20;5.00;;;1.20;;
25509;SDS011;13413;52.336;21.200;2022-09-01T17:21:47;2.50;;;1.10;;
25509;SDS011;13413;52.336;21.200;2022-09-01T17:25:24;3.80;;;1.10;;
25509;SDS011;13413;52.336;21.200;2022-09-01T17:28:49;3.90;;;1.10;;
25509;SDS011;13413;52.336;21.200;2022-09-01T17:32:15;4.00;;;1.10;;
25509;SDS011;13413;52.336;21.200;2022-09-01T17:35:47;7.00;;;1.50;;
25509;SDS011;13413;52.336;21.200;2022-09-01T17:39:21;3.50;;;1.40;;
25509;SDS011;13413;52.336;21.200;2022-09-01T17:42:52;2.60;;;1.10;;
25509;SDS011;13413;52.336;21.200;2022-09-01T17:46:23;4.80;;;1.80;;
25509;SDS011;13413;52.336;21.200;2022-09-01T17:49:52;3.70;;;1.30;;
25509;SDS011;13413;52.336;21.200;2022-09-01T17:53:20;8.60;;;1.50;;
25509;SDS011;13413;52.336;21.200;2022-09-01T17:56:49;6.50;;;1.80;;
25509;SDS011;13413;52.336;21.200;2022-09-01T18:00:19;8.10;;;1.70;;
25509;SDS011;13413;52.336;21.200;2022-09-01T18:03:43;7.80;;;1.40;;
25509;SDS011;13413;52.336;21.200;2022-09-01T18:07:11;6.50;;;1.80;;
25509;SDS011;13413;52.336;21.200;2022-09-01T18:10:44;4.90;;;2.00;;
25509;SDS011;13413;52.336;21.200;2022-09-01T18:14:08;4.50;;;2.90;;
25509;SDS011;13413;52.336;21.200;2022-09-01T18:20:53;6.40;;;2.20;;
25509;SDS011;13413;52.336;21.200;2022-09-01T18:24:17;6.50;;;2.40;;
25509;SDS011;13413;52.336;21.200;2022-09-01T18:27:42;13.80;;;2.40;;
25509;SDS011;13413;52.336;21.200;2022-09-01T18:31:06;9.40;;;2.60;;
25509;SDS011;13413;52.336;21.200;2022-09-01T18:34:41;16.20;;;2.90;;
25509;SDS011;13413;52.336;21.200;2022-09-01T18:38:21;5.90;;;2.20;;
25509;SDS011;13413;52.336;21.200;2022-09-01T18:41:52;11.50;;;2.70;;
25509;SDS011;13413;52.336;21.200;2022-09-01T18:45:22;20.90;;;2.70;;
25509;SDS011;13413;52.336;21.200;2022-09-01T18:48:53;11.30;;;2.20;;
25509;SDS011;13413;52.336;21.200;2022-09-01T18:52:22;3.10;;;1.90;;
25509;SDS011;13413;52.336;21.200;2022-09-01T18:56:07;12.30;;;2.40;;
25509;SDS011;13413;52.336;21.200;2022-09-01T18:59:51;7.90;;;2.30;;
25509;SDS011;13413;52.336;21.200;2022-09-01T19:03:28;10.70;;;3.20;;
25509;SDS011;13413;52.336;21.200;2022-09-01T19:06:54;9.60;;;3.80;;
25509;SDS011;13413;52.336;21.200;2022-09-01T19:10:21;8.40;;;2.60;;
25509;SDS011;13413;52.336;21.200;2022-09-01T19:13:48;5.60;;;3.20;;
25509;SDS011;13413;52.336;21.200;2022-09-01T19:17:18;4.60;;;2.80;;
25509;SDS011;13413;52.336;21.200;2022-09-01T19:20:54;4.50;;;2.50;;
25509;SDS011;13413;52.336;21.200;2022-09-01T19:24:19;7.50;;;3.50;;
25509;SDS011;13413;52.336;21.200;2022-09-01T19:27:42;10.40;;;3.60;;
25509;SDS011;13413;52.336;21.200;2022-09-01T19:31:14;9.90;;;3.80;;
25509;SDS011;13413;52.336;21.200;2022-09-01T19:34:38;11.90;;;3.80;;
25509;SDS011;13413;52.336;21.200;2022-09-01T19:38:02;8.60;;;4.00;;
25509;SDS011;13413;52.336;21.200;2022-09-01T19:41:23;10.20;;;4.20;;
25509;SDS011;13413;52.336;21.200;2022-09-01T19:44:47;7.80;;;4.00;;
25509;SDS011;13413;52.336;21.200;2022-09-01T19:48:14;9.20;;;3.80;;
25509;SDS011;13413;52.336;21.200;2022-09-01T19:51:40;11.70;;;4.50;;
25509;SDS011;13413;52.336;21.200;2022-09-01T19:55:06;13.80;;;4.70;;
25509;SDS011;13413;52.336;21.200;2022-09-01T20:01:52;16.70;;;4.70;;
25509;SDS011;13413;52.336;21.200;2022-09-01T20:05:20;13.40;;;4.30;;
25509;SDS011;13413;52.336;21.200;2022-09-01T20:08:47;21.70;;;4.90;;
25509;SDS011;13413;52.336;21.200;2022-09-01T20:12:16;11.90;;;4.00;;
25509;SDS011;13413;52.336;21.200;2022-09-01T20:15:45;8.80;;;3.80;;
25509;SDS011;13413;52.336;21.200;2022-09-01T20:19:08;12.00;;;4.20;;
25509;SDS011;13413;52.336;21.200;2022-09-01T20:22:33;11.30;;;4.70;;
25509;SDS011;13413;52.336;21.200;2022-09-01T20:26:07;7.50;;;4.10;;
25509;SDS011;13413;52.336;21.200;2022-09-01T20:32:57;11.00;;;4.30;;
25509;SDS011;13413;52.336;21.200;2022-09-01T20:36:22;14.40;;;4.90;;
25509;SDS011;13413;52.336;21.200;2022-09-01T20:39:47;12.90;;;5.80;;
25509;SDS011;13413;52.336;21.200;2022-09-01T20:43:14;17.00;;;6.70;;
25509;SDS011;13413;52.336;21.200;2022-09-01T20:46:38;20.80;;;7.60;;
25509;SDS011;13413;52.336;21.200;2022-09-01T20:49:58;11.60;;;6.20;;
25509;SDS011;13413;52.336;21.200;2022-09-01T20:53:23;11.10;;;5.60;;
25509;SDS011;13413;52.336;21.200;2022-09-01T20:57:00;9.10;;;4.60;;
25509;SDS011;13413;52.336;21.200;2022-09-01T21:00:28;13.50;;;4.20;;